Time;durP1;ratioP1;P1;durP2;ratioP2;P2;SDS_P1;SDS_P2;PMS_P1;PMS_P2;Temp;Humidity;BMP_temperature;BMP_pressure;BME280_temperature;BME280_humidity;BME280_pressure;Samples;Min_cycle;Max_cycle;Signal;HPM_P1;HPM_P2
2022/05/29 00:00:11;;;;;;;2.63;1.10;;;17.20;86.70;;;;;;4994644;28;20076;-77
2022/05/29 00:02:37;;;;;;;4.80;1.20;;;17.20;86.80;;;;;;4994363;28;20110;-77
2022/05/29 00:05:03;;;;;;;2.60;1.10;;;17.20;86.90;;;;;;4993161;28;20105;-78
2022/05/29 00:07:29;;;;;;;3.70;1.38;;;17.20;86.90;;;;;;4992648;28;20125;-77
2022/05/29 00:09:55;;;;;;;2.60;1.15;;;17.20;87.00;;;;;;4993099;28;20483;-78
2022/05/29 00:12:22;;;;;;;3.72;1.30;;;17.20;86.90;;;;;;4993164;28;20030;-77
2022/05/29 00:14:48;;;;;;;2.40;1.20;;;17.10;86.90;;;;;;4994425;28;20054;-78
2022/05/29 00:17:16;;;;;;;2.90;1.30;;;17.10;86.90;;;;;;4992506;28;20436;-77
2022/05/29 00:19:42;;;;;;;3.63;1.30;;;17.20;87.00;;;;;;4994032;28;20026;-78
2022/05/29 00:22:10;;;;;;;4.00;1.38;;;17.10;86.90;;;;;;4994316;28;20077;-77
2022/05/29 00:24:36;;;;;;;4.50;1.20;;;17.10;86.90;;;;;;4993959;28;20733;-78
2022/05/29 00:27:02;;;;;;;3.70;1.40;;;17.10;86.90;;;;;;4993708;28;20443;-77
2022/05/29 00:29:28;;;;;;;3.72;1.17;;;17.10;86.60;;;;;;4993555;28;20030;-78
2022/05/29 00:31:54;;;;;;;3.35;1.27;;;17.10;86.70;;;;;;4994188;28;20098;-78
2022/05/29 00:34:20;;;;;;;3.13;1.10;;;17.20;86.70;;;;;;4992673;28;20172;-79
2022/05/29 00:36:45;;;;;;;4.13;1.40;;;17.20;86.60;;;;;;4993626;28;20547;-78
2022/05/29 00:39:14;;;;;;;2.58;1.10;;;17.20;86.60;;;;;;4992554;28;20037;-78
2022/05/29 00:41:40;;;;;;;3.08;1.10;;;17.30;86.50;;;;;;4992586;28;20026;-79
2022/05/29 00:44:15;;;;;;;3.85;1.40;;;17.30;86.40;;;;;;4992383;28;20029;-78
2022/05/29 00:46:46;;;;;;;2.47;1.38;;;17.30;86.40;;;;;;4992256;28;20023;-78
2022/05/29 00:49:13;;;;;;;3.73;1.30;;;17.30;86.50;;;;;;4993492;28;20023;-78
2022/05/29 00:51:49;;;;;;;4.03;1.35;;;17.20;86.50;;;;;;4993555;28;20045;-78
2022/05/29 00:54:16;;;;;;;4.60;1.20;;;17.20;86.50;;;;;;4992159;28;20484;-78
2022/05/29 00:56:41;;;;;;;3.70;1.10;;;17.20;86.70;;;;;;4993239;28;20399;-78
2022/05/29 00:59:17;;;;;;;2.78;1.48;;;17.20;86.90;;;;;;4992111;28;20023;-77
2022/05/29 01:01:43;;;;;;;2.42;1.20;;;17.20;87.00;;;;;;4992147;28;20026;-78
2022/05/29 01:04:11;;;;;;;2.95;1.20;;;17.20;87.10;;;;;;4993381;28;20038;-77
2022/05/29 01:06:36;;;;;;;3.08;1.40;;;17.20;87.10;;;;;;4991927;28;20026;-78
2022/05/29 01:09:05;;;;;;;3.40;1.58;;;17.20;87.20;;;;;;4993094;28;20034;-77
2022/05/29 01:11:48;;;;;;;3.00;1.30;;;17.10;87.30;;;;;;4992112;28;20026;-78
2022/05/29 01:14:35;;;;;;;3.72;1.52;;;17.10;87.20;;;;;;4993200;28;20022;-77
2022/05/29 01:17:31;;;;;;;3.10;1.55;;;17.10;87.70;;;;;;4991559;28;20027;-78
2022/05/29 01:20:23;;;;;;;4.38;1.50;;;17.10;87.20;;;;;;4991444;28;20033;-77
2022/05/29 01:23:04;;;;;;;2.88;1.02;;;17.10;87.20;;;;;;4991871;28;20169;-78
2022/05/29 01:25:50;;;;;;;3.08;1.30;;;17.10;87.20;;;;;;4991916;28;20019;-78
2022/05/29 01:28:38;;;;;;;2.55;1.27;;;17.10;87.30;;;;;;4991352;28;20480;-79
2022/05/29 01:31:14;;;;;;;4.30;1.35;;;17.10;87.30;;;;;;4991824;28;20023;-78
2022/05/29 01:33:46;;;;;;;4.18;1.25;;;17.10;87.00;;;;;;4993036;28;20027;-78
2022/05/29 01:36:22;;;;;;;3.67;1.42;;;17.10;87.10;;;;;;4992907;28;20427;-78
2022/05/29 01:38:58;;;;;;;2.50;1.20;;;17.10;87.00;;;;;;4992747;28;20031;-78
2022/05/29 01:41:30;;;;;;;1.52;1.00;;;17.20;86.90;;;;;;4991842;28;20026;-79
2022/05/29 01:44:22;;;;;;;2.67;1.10;;;17.20;86.80;;;;;;4991779;28;20106;-78
2022/05/29 01:47:04;;;;;;;3.38;1.30;;;17.20;86.70;;;;;;4992776;28;20518;-78
2022/05/29 01:49:36;;;;;;;2.67;1.20;;;17.20;86.60;;;;;;4991578;28;20034;-78
2022/05/29 01:52:27;;;;;;;2.78;1.30;;;17.20;86.70;;;;;;4991487;28;20034;-77
2022/05/29 01:55:07;;;;;;;3.10;1.20;;;17.20;86.80;;;;;;4992649;28;20026;-77
2022/05/29 01:57:40;;;;;;;4.15;1.10;;;17.20;86.90;;;;;;4990743;28;20069;-78
2022/05/29 02:00:09;;;;;;;4.20;1.45;;;17.10;87.00;;;;;;4992910;28;20493;-79
2022/05/29 02:02:43;;;;;;;3.03;1.33;;;17.10;87.20;;;;;;4992691;28;20026;-78
2022/05/29 02:05:19;;;;;;;3.65;1.42;;;17.10;87.30;;;;;;4991636;28;20419;-78
2022/05/29 02:07:49;;;;;;;3.70;1.63;;;17.10;87.40;;;;;;4992469;28;20507;-79
2022/05/29 02:10:43;;;;;;;4.65;1.40;;;17.10;87.50;;;;;;4991564;28;20030;-78
2022/05/29 02:13:22;;;;;;;2.95;1.30;;;17.10;87.50;;;;;;4993817;28;20072;-77
2022/05/29 02:15:55;;;;;;;2.90;1.20;;;17.10;87.50;;;;;;5000066;28;20054;-78
2022/05/29 02:18:51;;;;;;;2.20;1.10;;;17.10;87.50;;;;;;4994776;28;20026;-77
2022/05/29 02:21:22;;;;;;;2.72;1.27;;;17.10;87.50;;;;;;5011563;28;20034;-78
2022/05/29 02:23:52;;;;;;;4.43;1.48;;;17.10;87.50;;;;;;4995081;28;20081;-79
2022/05/29 02:26:23;;;;;;;3.33;1.13;;;17.10;87.50;;;;;;5011377;28;20057;-78
2022/05/29 02:28:55;;;;;;;3.75;1.20;;;17.10;87.50;;;;;;4995888;28;20037;-77
2022/05/29 02:32:01;;;;;;;2.75;1.10;;;17.10;87.50;;;;;;4996217;28;20026;-77
2022/05/29 02:35:02;;;;;;;3.65;1.15;;;17.00;87.40;;;;;;4959846;28;20035;-77
2022/05/29 02:37:50;;;;;;;3.17;1.20;;;17.10;87.20;;;;;;4980019;28;20542;-77
2022/05/29 02:40:27;;;;;;;3.00;1.08;;;17.10;87.20;;;;;;4996013;28;20093;-77
2022/05/29 02:43:02;;;;;;;2.47;1.08;;;17.10;87.10;;;;;;4994760;28;20399;-77
2022/05/29 02:45:54;;;;;;;3.10;1.30;;;17.10;87.00;;;;;;4995753;28;20042;-77
2022/05/29 02:48:45;;;;;;;2.05;1.05;;;17.10;86.90;;;;;;4995556;28;20080;-77
2022/05/29 02:51:19;;;;;;;;;;;17.20;86.80;;;;;;4996305;28;20033;-78
2022/05/29 02:53:46;;;;;;;2.35;1.40;;;17.20;86.90;;;;;;4995846;28;19937;-78
2022/05/29 02:56:12;;;;;;;3.83;1.33;;;17.10;86.90;;;;;;4995534;28;20034;-77
2022/05/29 02:58:40;;;;;;;2.20;1.17;;;17.10;86.90;;;;;;5010453;28;20030;-77
2022/05/29 03:01:29;;;;;;;2.72;1.10;;;17.10;87.10;;;;;;5010623;28;20033;-77
2022/05/29 03:04:13;;;;;;;3.28;1.33;;;17.10;87.20;;;;;;5010573;28;20113;-78
2022/05/29 03:07:03;;;;;;;2.22;1.20;;;17.10;87.40;;;;;;4995260;28;20034;-75
2022/05/29 03:09:38;;;;;;;1.73;1.10;;;17.10;87.50;;;;;;4994153;28;20491;-78
2022/05/29 03:12:17;;;;;;;3.75;1.50;;;17.10;87.60;;;;;;4994169;28;20041;-78
2022/05/29 03:14:58;;;;;;;4.05;1.15;;;17.00;87.60;;;;;;5010286;28;20030;-78
2022/05/29 03:17:33;;;;;;;3.20;1.23;;;17.00;87.60;;;;;;4994911;28;20065;-78
2022/05/29 03:20:18;;;;;;;3.10;1.40;;;17.00;87.60;;;;;;4995337;28;20031;-77
2022/05/29 03:22:46;;;;;;;4.18;1.50;;;17.00;87.60;;;;;;4995049;28;20431;-78
2022/05/29 03:25:18;;;;;;;3.92;1.27;;;17.00;87.60;;;;;;4993738;28;20037;-77
2022/05/29 03:27:49;;;;;;;3.15;1.40;;;17.00;87.60;;;;;;4993087;28;20479;-77
2022/05/29 03:30:21;;;;;;;3.97;1.20;;;17.00;87.50;;;;;;5008929;28;20510;-77
2022/05/29 03:32:47;;;;;;;;;;;17.00;87.50;;;;;;4995651;28;20037;-78
2022/05/29 03:35:25;;;;;;;3.45;1.40;;;17.00;87.60;;;;;;4995012;28;20390;-77
2022/05/29 03:37:52;;;;;;;3.80;1.40;;;17.00;87.50;;;;;;4994495;28;20033;-77
2022/05/29 03:40:18;;;;;;;2.97;1.20;;;17.00;87.40;;;;;;5009864;28;20373;-77
2022/05/29 03:42:44;;;;;;;2.80;1.20;;;17.00;87.40;;;;;;4994667;28;20105;-79
2022/05/29 03:45:11;;;;;;;3.08;1.15;;;17.00;87.30;;;;;;5009989;28;20058;-78
2022/05/29 03:47:37;;;;;;;3.13;1.13;;;17.10;87.30;;;;;;5009343;28;20038;-78
2022/05/29 03:50:05;;;;;;;4.60;1.83;;;17.10;87.20;;;;;;4994750;28;20113;-78
2022/05/29 03:52:31;;;;;;;3.13;1.10;;;17.10;87.10;;;;;;4994474;28;20030;-78
2022/05/29 03:54:57;;;;;;;3.65;1.30;;;17.10;86.90;;;;;;4994546;28;20042;-77
2022/05/29 03:57:23;;;;;;;2.42;1.30;;;17.10;87.00;;;;;;4994429;28;20169;-78
2022/05/29 03:59:48;;;;;;;3.20;1.50;;;17.10;87.00;;;;;;4994502;28;20105;-78
2022/05/29 04:02:14;;;;;;;3.53;1.38;;;17.10;87.10;;;;;;5009466;28;20030;-79
2022/05/29 04:04:39;;;;;;;2.72;1.25;;;17.00;87.10;;;;;;4994375;28;20027;-78
2022/05/29 04:07:05;;;;;;;3.80;1.30;;;17.10;87.30;;;;;;5009402;28;20065;-78
2022/05/29 04:12:15;;;;;;;3.10;1.27;;;17.00;87.50;;;;;;4994662;28;20033;-78
2022/05/29 04:14:43;;;;;;;2.40;1.40;;;17.00;88.10;;;;;;5020930;28;20471;-77
2022/05/29 04:17:10;;;;;;;3.25;1.40;;;17.00;87.70;;;;;;5012662;28;20080;-77
2022/05/29 04:19:36;;;;;;;2.17;1.17;;;17.00;87.70;;;;;;5009100;28;20030;-77
2022/05/29 04:22:07;;;;;;;2.28;1.40;;;17.00;87.70;;;;;;4993992;28;20026;-78
2022/05/29 04:24:33;;;;;;;3.15;1.40;;;17.00;87.80;;;;;;4994032;28;20088;-78
2022/05/29 04:26:58;;;;;;;2.72;1.40;;;17.00;87.70;;;;;;4993740;28;20511;-77
2022/05/29 04:29:24;;;;;;;2.88;1.38;;;17.00;87.70;;;;;;4992562;28;20118;-77
2022/05/29 04:34:34;;;;;;;3.03;1.35;;;17.00;87.60;;;;;;4994031;28;20084;-77
2022/05/29 04:36:59;;;;;;;2.80;1.30;;;17.00;87.70;;;;;;5008663;28;20129;-77
2022/05/29 04:39:26;;;;;;;2.30;1.20;;;17.00;87.70;;;;;;4992464;28;20110;-77
2022/05/29 04:41:51;;;;;;;3.58;1.40;;;17.00;87.70;;;;;;4993377;28;20034;-77
2022/05/29 04:44:17;;;;;;;2.15;1.17;;;17.00;87.60;;;;;;4992320;28;20567;-77
2022/05/29 04:46:43;;;;;;;3.00;1.30;;;17.00;87.50;;;;;;4992154;28;20023;-77
2022/05/29 04:49:09;;;;;;;2.70;1.10;;;17.00;87.30;;;;;;5008783;28;20097;-77
2022/05/29 04:51:34;;;;;;;2.47;1.20;;;17.10;87.30;;;;;;5008706;28;20439;-77
2022/05/29 04:54:00;;;;;;;3.35;1.40;;;17.10;87.20;;;;;;4993397;28;20038;-77
2022/05/29 04:56:25;;;;;;;3.67;1.38;;;17.10;87.00;;;;;;4993580;28;20603;-77
2022/05/29 04:58:51;;;;;;;2.53;1.15;;;17.10;87.00;;;;;;4993373;28;20022;-77
2022/05/29 05:01:16;;;;;;;2.65;1.40;;;17.10;87.00;;;;;;5008470;28;20058;-78
2022/05/29 05:03:42;;;;;;;3.60;1.65;;;17.10;87.00;;;;;;4993184;28;20023;-79
2022/05/29 05:06:09;;;;;;;2.83;1.40;;;17.10;87.10;;;;;;4993344;28;20022;-78
2022/05/29 05:08:35;;;;;;;3.42;1.50;;;17.10;87.20;;;;;;4993008;28;20024;-78
2022/05/29 05:11:01;;;;;;;2.90;1.35;;;17.00;87.20;;;;;;4992222;28;20109;-77
2022/05/29 05:13:27;;;;;;;2.85;1.40;;;17.00;87.20;;;;;;4991958;28;20019;-77
2022/05/29 05:16:04;;;;;;;3.15;1.60;;;17.00;87.40;;;;;;4992040;28;20087;-78
2022/05/29 05:18:30;;;;;;;3.03;1.25;;;17.00;87.50;;;;;;4991634;28;20026;-77
2022/05/29 05:20:55;;;;;;;3.65;1.50;;;17.00;87.50;;;;;;4991682;28;20042;-77
2022/05/29 05:23:21;;;;;;;3.42;1.52;;;17.00;87.60;;;;;;4992946;28;20034;-77
2022/05/29 05:25:46;;;;;;;3.65;1.60;;;17.00;87.50;;;;;;4991842;28;20027;-77
2022/05/29 05:28:12;;;;;;;3.33;1.58;;;17.00;87.50;;;;;;4992765;28;20069;-77
2022/05/29 05:30:38;;;;;;;3.08;1.45;;;17.00;87.50;;;;;;4992653;28;20052;-77
2022/05/29 05:33:03;;;;;;;3.05;1.50;;;17.00;87.60;;;;;;4993246;28;20026;-78
2022/05/29 05:35:29;;;;;;;3.28;1.60;;;17.00;87.60;;;;;;4992915;28;20034;-78
2022/05/29 05:37:56;;;;;;;2.65;1.60;;;17.00;87.60;;;;;;4992605;28;20026;-78
2022/05/29 05:40:22;;;;;;;3.03;1.48;;;17.00;87.60;;;;;;4992858;28;20022;-78
2022/05/29 05:42:47;;;;;;;2.42;1.20;;;17.00;87.60;;;;;;4992813;28;20023;-78
2022/05/29 05:45:13;;;;;;;3.72;1.40;;;17.00;87.60;;;;;;4992943;28;20023;-77
2022/05/29 05:47:39;;;;;;;2.80;1.40;;;17.00;87.40;;;;;;4992532;28;20046;-78
2022/05/29 05:50:06;;;;;;;3.20;1.50;;;17.00;87.40;;;;;;5007959;28;20480;-77
2022/05/29 05:52:32;;;;;;;2.28;1.20;;;17.00;87.20;;;;;;4992654;28;20081;-77
2022/05/29 05:54:57;;;;;;;3.20;1.42;;;17.00;87.10;;;;;;4996679;28;20030;-77
2022/05/29 05:57:23;;;;;;;3.10;1.50;;;17.10;87.00;;;;;;4996455;28;20030;-77
2022/05/29 05:59:49;;;;;;;2.60;1.45;;;17.10;86.90;;;;;;4996434;28;20037;-77
2022/05/29 06:02:14;;;;;;;3.65;1.58;;;17.10;86.90;;;;;;4995534;28;20026;-78
2022/05/29 06:04:42;;;;;;;2.67;1.38;;;17.10;86.90;;;;;;4994823;28;20021;-79
2022/05/29 06:07:09;;;;;;;3.08;1.65;;;17.00;87.00;;;;;;4996262;28;20105;-76
2022/05/29 06:09:35;;;;;;;2.85;1.50;;;17.10;87.10;;;;;;4996854;28;20030;-78
2022/05/29 06:12:03;;;;;;;4.35;1.70;;;17.00;87.10;;;;;;4996533;28;20034;-77
2022/05/29 06:14:29;;;;;;;3.33;1.88;;;17.10;87.20;;;;;;4996489;28;20022;-77
2022/05/29 06:16:57;;;;;;;3.13;1.70;;;17.00;87.30;;;;;;5011360;28;20514;-77
2022/05/29 06:19:23;;;;;;;5.55;1.90;;;17.00;87.30;;;;;;4996654;28;20052;-78
2022/05/29 06:21:48;;;;;;;3.03;1.77;;;17.00;87.50;;;;;;4995044;28;20041;-79
2022/05/29 06:24:14;;;;;;;2.28;1.40;;;17.00;87.50;;;;;;4994955;28;20404;-77
2022/05/29 06:26:39;;;;;;;3.35;1.70;;;17.00;87.50;;;;;;4994720;28;20038;-75
2022/05/29 06:29:05;;;;;;;3.72;1.63;;;17.00;87.50;;;;;;4994848;28;20034;-77
2022/05/29 06:31:30;;;;;;;3.50;1.65;;;16.90;87.50;;;;;;5011202;28;20096;-77
2022/05/29 06:33:56;;;;;;;3.45;1.60;;;16.90;87.50;;;;;;4994944;28;20058;-77
2022/05/29 06:36:24;;;;;;;2.67;1.45;;;17.00;87.60;;;;;;4995498;28;20034;-77
2022/05/29 06:38:51;;;;;;;2.83;1.50;;;16.90;87.50;;;;;;4994526;28;20034;-77
2022/05/29 06:41:20;;;;;;;2.78;1.60;;;17.00;87.60;;;;;;4995806;28;20015;-77
2022/05/29 06:43:46;;;;;;;3.13;1.80;;;17.00;87.60;;;;;;5011050;28;20065;-78
2022/05/29 06:46:11;;;;;;;3.47;1.70;;;16.90;87.50;;;;;;4995839;28;20054;-77
2022/05/29 06:48:38;;;;;;;3.08;1.50;;;16.90;87.50;;;;;;4995438;28;20030;-77
2022/05/29 06:51:10;;;;;;;3.65;1.52;;;17.00;87.40;;;;;;4995794;28;20041;-77
2022/05/29 06:53:36;;;;;;;3.03;1.60;;;17.00;87.30;;;;;;4995749;28;20028;-77
2022/05/29 06:56:03;;;;;;;2.65;1.35;;;17.00;87.20;;;;;;5010688;28;20097;-77
2022/05/29 06:58:28;;;;;;;4.05;1.70;;;17.00;87.10;;;;;;4995423;28;20057;-77
2022/05/29 07:09:06;;;;;;;2.40;1.30;;;17.00;87.00;;;;;;4995745;28;20085;-78
2022/05/29 07:11:37;;;;;;;3.35;1.50;;;17.00;87.10;;;;;;5006037;28;20026;-77
2022/05/29 07:14:05;;;;;;;3.25;1.50;;;17.00;87.10;;;;;;5015178;28;20102;-78
2022/05/29 07:16:35;;;;;;;4.43;1.67;;;17.00;87.60;;;;;;5014546;28;20033;-78
2022/05/29 07:19:01;;;;;;;2.90;1.58;;;17.00;87.20;;;;;;5014530;28;20037;-78
2022/05/29 07:21:28;;;;;;;2.55;1.42;;;17.00;87.50;;;;;;5013424;28;20674;-78
2022/05/29 07:23:54;;;;;;;3.20;1.60;;;17.00;87.50;;;;;;5013490;28;20022;-78
2022/05/29 07:26:20;;;;;;;3.75;1.60;;;17.00;87.50;;;;;;5014755;28;20037;-77
2022/05/29 07:28:45;;;;;;;3.55;1.50;;;16.90;87.50;;;;;;4996934;28;20030;-77
2022/05/29 07:31:11;;;;;;;2.75;1.58;;;16.90;87.60;;;;;;5013638;28;20026;-77
2022/05/29 07:33:38;;;;;;;3.20;1.60;;;16.90;87.50;;;;;;5014665;28;20034;-78
2022/05/29 07:36:08;;;;;;;4.03;1.77;;;16.90;87.60;;;;;;5014966;28;20112;-79
2022/05/29 07:38:33;;;;;;;3.13;1.80;;;16.90;87.60;;;;;;5013844;28;20026;-78
2022/05/29 07:40:59;;;;;;;3.03;1.60;;;16.90;87.70;;;;;;5014594;28;20032;-78
2022/05/29 07:43:26;;;;;;;3.92;1.88;;;17.00;87.70;;;;;;5018359;28;20030;-82
2022/05/29 07:45:57;;;;;;;3.08;1.50;;;16.90;87.70;;;;;;5010439;28;20469;-78
2022/05/29 07:48:28;;;;;;;2.35;1.38;;;16.90;87.70;;;;;;4993103;28;20032;-78
2022/05/29 07:50:54;;;;;;;3.77;1.80;;;16.90;87.60;;;;;;4994780;28;20027;-78
2022/05/29 07:53:20;;;;;;;2.97;1.50;;;16.90;87.50;;;;;;4994578;28;20030;-77
2022/05/29 07:55:46;;;;;;;3.33;1.40;;;17.00;87.50;;;;;;5009835;28;20038;-78
2022/05/29 07:58:13;;;;;;;2.67;1.50;;;17.00;87.30;;;;;;5009550;28;20395;-77
2022/05/29 08:00:39;;;;;;;3.40;1.50;;;17.00;87.20;;;;;;4994793;28;20022;-77
2022/05/29 08:03:06;;;;;;;2.58;1.30;;;17.00;87.00;;;;;;5010006;28;20023;-77
2022/05/29 08:05:35;;;;;;;3.05;1.50;;;17.10;87.00;;;;;;4994714;28;20030;-78
2022/05/29 08:08:04;;;;;;;2.75;1.40;;;17.10;87.00;;;;;;5009738;28;20026;-78
2022/05/29 08:10:31;;;;;;;4.68;1.80;;;17.10;87.00;;;;;;5009958;28;20034;-77
2022/05/29 08:12:56;;;;;;;2.85;1.48;;;17.00;87.00;;;;;;5009504;28;20392;-78
2022/05/29 08:15:22;;;;;;;3.20;1.50;;;17.00;87.00;;;;;;5008997;28;20036;-77
2022/05/29 08:17:47;;;;;;;3.67;1.60;;;17.00;87.10;;;;;;4992393;28;20150;-77
2022/05/29 08:20:14;;;;;;;3.33;1.80;;;17.00;87.10;;;;;;5009094;28;20038;-78
2022/05/29 08:22:40;;;;;;;2.60;1.60;;;17.00;87.10;;;;;;5009048;28;20499;-78
2022/05/29 08:30:51;;;;;;;2.80;1.80;;;17.10;87.10;;;;;;4994530;28;20034;-78
2022/05/29 08:33:26;;;;;;;3.30;1.52;;;17.00;87.00;;;;;;5009484;28;20035;-77
2022/05/29 08:36:00;;;;;;;3.42;1.50;;;17.00;87.00;;;;;;5009093;28;20034;-77
2022/05/29 08:38:27;;;;;;;3.05;1.80;;;17.00;87.10;;;;;;5008762;28;20068;-77
2022/05/29 08:41:02;;;;;;;3.42;1.88;;;17.00;87.10;;;;;;5009176;28;20395;-77
2022/05/29 08:44:05;;;;;;;3.00;1.60;;;17.00;87.20;;;;;;5009195;28;20026;-76
2022/05/29 08:46:42;;;;;;;2.95;1.60;;;17.00;87.20;;;;;;5009010;28;20121;-77
2022/05/29 08:49:11;;;;;;;3.65;1.60;;;17.00;87.30;;;;;;4994180;28;20034;-77
2022/05/29 08:51:46;;;;;;;3.00;1.55;;;17.00;87.40;;;;;;4994131;28;20033;-77
2022/05/29 08:54:32;;;;;;;2.67;1.40;;;17.00;87.40;;;;;;5008944;28;20372;-77
2022/05/29 08:57:41;;;;;;;3.35;1.70;;;17.00;87.30;;;;;;5008769;28;20034;-77
2022/05/29 09:00:27;;;;;;;2.88;1.35;;;17.00;87.30;;;;;;5008978;28;20022;-78
2022/05/29 09:03:20;;;;;;;2.95;1.38;;;17.00;87.20;;;;;;5008778;28;20022;-77
2022/05/29 09:05:47;;;;;;;3.00;1.60;;;17.00;87.10;;;;;;5008109;28;20022;-77
2022/05/29 09:08:22;;;;;;;3.33;1.65;;;17.00;86.90;;;;;;5008847;28;20641;-78
2022/05/29 09:10:53;;;;;;;3.08;1.67;;;17.10;87.00;;;;;;4993512;28;20403;-78
2022/05/29 09:13:37;;;;;;;3.53;1.70;;;17.00;86.90;;;;;;4993470;28;20032;-78
2022/05/29 09:16:21;;;;;;;2.17;1.40;;;17.10;87.00;;;;;;5008704;28;20056;-77
2022/05/29 09:19:02;;;;;;;2.97;1.85;;;17.00;87.00;;;;;;5008448;28;20498;-77
2022/05/29 09:21:40;;;;;;;4.03;1.58;;;17.00;87.00;;;;;;5008399;28;20411;-77
2022/05/29 09:24:13;;;;;;;1.98;1.40;;;17.00;87.10;;;;;;5009624;28;20112;-77
2022/05/29 09:26:39;;;;;;;3.65;1.70;;;17.00;87.70;;;;;;5011351;28;20029;-78
2022/05/29 09:29:06;;;;;;;4.22;1.80;;;17.00;87.20;;;;;;5010642;28;20030;-78
2022/05/29 09:31:32;;;;;;;3.35;1.67;;;17.00;87.30;;;;;;4993732;28;20026;-77
2022/05/29 09:33:59;;;;;;;3.97;1.88;;;17.00;87.30;;;;;;4991803;28;20026;-78
2022/05/29 09:36:56;;;;;;;3.25;1.80;;;17.00;87.30;;;;;;5004734;28;20402;-77
2022/05/29 09:39:29;;;;;;;3.03;1.70;;;17.00;87.30;;;;;;5011688;28;20018;-78
2022/05/29 09:42:23;;;;;;;3.47;1.60;;;17.00;87.30;;;;;;5007143;28;20018;-78
2022/05/29 09:45:15;;;;;;;2.80;1.50;;;17.00;87.30;;;;;;4991609;28;20022;-78
2022/05/29 09:50:54;;;;;;;3.65;1.63;;;17.00;87.30;;;;;;4993188;28;20045;-78
2022/05/29 09:53:25;;;;;;;3.75;1.70;;;17.00;87.30;;;;;;4984315;28;20430;-77
2022/05/29 09:56:03;;;;;;;3.97;1.65;;;17.00;87.30;;;;;;4991600;28;20038;-78
2022/05/29 09:58:55;;;;;;;3.28;1.50;;;17.00;87.20;;;;;;4992431;28;20522;-78
2022/05/29 10:01:34;;;;;;;3.17;1.52;;;17.00;87.00;;;;;;5009512;28;20034;-78
2022/05/29 10:04:03;;;;;;;3.75;1.80;;;17.10;86.90;;;;;;5005402;28;20117;-78
2022/05/29 10:06:33;;;;;;;3.20;1.58;;;17.20;86.70;;;;;;5012335;28;20020;-78
2022/05/29 10:09:17;;;;;;;3.45;1.67;;;17.20;86.40;;;;;;5010629;28;20388;-78
2022/05/29 10:11:48;;;;;;;3.40;1.60;;;17.20;86.20;;;;;;5010862;28;20500;-78
2022/05/29 10:14:38;;;;;;;3.00;1.50;;;17.20;86.20;;;;;;5008711;28;20603;-77
2022/05/29 10:17:26;;;;;;;3.42;1.67;;;17.20;86.40;;;;;;4992392;28;20034;-77
2022/05/29 10:19:52;;;;;;;2.42;1.48;;;17.10;86.50;;;;;;4984396;28;20117;-78
2022/05/29 10:22:27;;;;;;;2.15;1.42;;;17.10;87.10;;;;;;5016236;28;20458;-77
2022/05/29 10:24:54;;;;;;;2.60;1.55;;;17.10;86.70;;;;;;4992555;28;20040;-77
2022/05/29 10:27:35;;;;;;;2.65;1.70;;;17.10;86.70;;;;;;4994603;28;20395;-77
2022/05/29 10:30:02;;;;;;;3.45;1.70;;;17.10;86.70;;;;;;5011815;28;20026;-77
2022/05/29 10:32:31;;;;;;;2.35;1.50;;;17.10;86.70;;;;;;5010801;28;20042;-77
2022/05/29 10:35:25;;;;;;;2.72;1.65;;;17.10;86.70;;;;;;5011928;28;20521;-77
2022/05/29 10:37:52;;;;;;;3.15;1.50;;;17.10;86.70;;;;;;5011297;28;20025;-78
2022/05/29 10:40:18;;;;;;;2.50;1.40;;;17.10;86.70;;;;;;5014368;28;20514;-78
2022/05/29 10:42:46;;;;;;;2.58;1.35;;;17.10;86.70;;;;;;5013898;28;20057;-78
2022/05/29 10:45:27;;;;;;;2.53;1.50;;;17.10;86.80;;;;;;5014171;28;20049;-77
2022/05/29 10:48:05;;;;;;;3.40;1.63;;;17.10;86.80;;;;;;5019032;28;20022;-78
2022/05/29 10:51:03;;;;;;;3.55;1.70;;;17.10;86.80;;;;;;4996058;28;20038;-78
2022/05/29 10:53:38;;;;;;;2.60;1.50;;;17.10;86.70;;;;;;5027591;28;20617;-78
2022/05/29 10:56:30;;;;;;;3.47;1.67;;;17.10;86.80;;;;;;5026931;28;20084;-77
2022/05/29 10:59:21;;;;;;;2.47;1.60;;;17.10;86.80;;;;;;5006712;28;20124;-78
2022/05/29 11:05:11;;;;;;;3.28;1.65;;;17.10;86.70;;;;;;5013036;28;20033;-78
2022/05/29 11:07:58;;;;;;;3.00;1.55;;;17.20;86.60;;;;;;5026879;28;20022;-77
2022/05/29 11:11:05;;;;;;;2.45;1.40;;;17.20;86.40;;;;;;5010585;28;20109;-77
2022/05/29 11:13:48;;;;;;;2.33;1.40;;;17.20;86.30;;;;;;5007580;28;20030;-77
2022/05/29 11:16:55;;;;;;;3.53;1.70;;;17.20;85.90;;;;;;5014904;28;20022;-78
2022/05/29 11:19:34;;;;;;;3.25;1.50;;;17.20;85.70;;;;;;5003175;28;20108;-77
2022/05/29 11:22:17;;;;;;;5.03;1.42;;;17.20;85.60;;;;;;5015659;28;20444;-75
2022/05/29 11:24:59;;;;;;;4.88;1.88;;;17.20;85.70;;;;;;5013254;28;20433;-74
2022/05/29 11:27:44;;;;;;;4.00;1.70;;;17.20;85.70;;;;;;5012294;28;20026;-73
2022/05/29 11:30:22;;;;;;;5.40;1.77;;;17.20;85.70;;;;;;5016196;28;20040;-74
2022/05/29 11:32:53;;;;;;;3.55;1.60;;;17.20;85.80;;;;;;5020593;28;20030;-74
2022/05/29 11:35:34;;;;;;;4.25;1.48;;;17.20;85.90;;;;;;5012111;28;20032;-73
2022/05/29 11:38:09;;;;;;;;;;;17.20;85.90;;;;;;5011130;28;20065;-75
2022/05/29 11:40:41;;;;;;;2.10;1.30;;;17.20;85.90;;;;;;5012324;28;19909;-75
2022/05/29 11:43:23;;;;;;;2.95;1.60;;;17.10;85.90;;;;;;5027222;28;20021;-73
2022/05/29 11:51:44;;;;;;;3.78;1.55;;;17.10;86.20;;;;;;5012281;28;20099;-73
2022/05/29 11:54:14;;;;;;;2.83;1.40;;;17.10;86.10;;;;;;5013411;28;20030;-74
2022/05/29 11:56:54;;;;;;;3.47;1.35;;;17.10;86.20;;;;;;5012778;28;20030;-74
2022/05/29 11:59:46;;;;;;;3.75;1.50;;;17.10;86.10;;;;;;5012183;28;20610;-74
2022/05/29 12:02:32;;;;;;;3.00;1.40;;;17.10;86.20;;;;;;5013125;28;20033;-75
2022/05/29 12:05:30;;;;;;;2.75;1.52;;;17.10;86.30;;;;;;5021737;28;20061;-74
2022/05/29 12:08:18;;;;;;;2.97;1.52;;;17.10;86.40;;;;;;5018179;28;20104;-74
2022/05/29 12:10:50;;;;;;;3.55;1.50;;;17.20;86.20;;;;;;5008384;28;20040;-76
2022/05/29 12:13:19;;;;;;;2.80;1.40;;;17.20;86.10;;;;;;4994393;28;20113;-77
2022/05/29 12:15:54;;;;;;;2.90;1.40;;;17.20;85.90;;;;;;4996417;28;20398;-77
2022/05/29 12:18:20;;;;;;;2.75;1.60;;;17.20;85.90;;;;;;5001591;28;20021;-76
2022/05/29 12:20:52;;;;;;;2.92;1.40;;;17.20;85.80;;;;;;4993780;28;20026;-75
2022/05/29 12:23:29;;;;;;;;;;;17.20;86.00;;;;;;5009880;28;20077;-77
2022/05/29 12:26:01;;;;;;;3.42;1.77;;;17.20;85.90;;;;;;5011094;28;20004;-72
2022/05/29 12:29:03;;;;;;;2.95;1.40;;;17.20;86.00;;;;;;5021036;28;20083;-76
2022/05/29 12:31:39;;;;;;;3.60;1.30;;;17.20;86.00;;;;;;5000844;28;20486;-76
2022/05/29 12:34:07;;;;;;;2.67;1.40;;;17.10;86.10;;;;;;5033179;28;20033;-77
2022/05/29 12:37:10;;;;;;;3.03;1.42;;;17.10;86.10;;;;;;5018563;28;20026;-77
2022/05/29 12:39:47;;;;;;;2.53;1.50;;;17.10;86.20;;;;;;5011823;28;20022;-76
2022/05/29 12:42:37;;;;;;;2.45;1.40;;;17.10;86.30;;;;;;5011956;28;20022;-76
2022/05/29 12:45:21;;;;;;;2.00;1.25;;;17.10;86.20;;;;;;5015696;28;20072;-76
2022/05/29 12:48:22;;;;;;;2.38;1.40;;;17.10;86.20;;;;;;5022697;28;20030;-76
2022/05/29 12:51:06;;;;;;;4.32;1.40;;;17.10;86.80;;;;;;5031866;28;20503;-76
2022/05/29 12:54:13;;;;;;;3.22;1.42;;;17.00;86.30;;;;;;5022803;28;20058;-77
2022/05/29 12:57:17;;;;;;;2.58;1.40;;;17.10;86.30;;;;;;4970742;28;20705;-76
2022/05/29 13:00:18;;;;;;;2.80;1.50;;;17.10;86.30;;;;;;5011297;28;20030;-76
2022/05/29 13:03:20;;;;;;;1.88;1.25;;;17.10;86.20;;;;;;5012502;28;20121;-76
2022/05/29 13:06:04;;;;;;;3.50;1.50;;;17.10;86.40;;;;;;5013507;28;20558;-76
2022/05/29 13:08:48;;;;;;;2.13;1.40;;;17.10;86.50;;;;;;5012310;28;20030;-76
2022/05/29 13:11:23;;;;;;;3.15;1.52;;;17.10;86.50;;;;;;5023155;28;20044;-76
2022/05/29 13:13:53;;;;;;;2.70;1.40;;;17.10;86.30;;;;;;5019712;28;20025;-76
2022/05/29 13:16:32;;;;;;;2.92;1.52;;;17.20;86.20;;;;;;5001737;28;20037;-76
2022/05/29 13:19:17;;;;;;;3.17;1.60;;;17.20;86.10;;;;;;4992229;28;20019;-75
2022/05/29 13:21:57;;;;;;;2.42;1.25;;;17.20;86.60;;;;;;4992453;28;20467;-76
2022/05/29 13:24:26;;;;;;;2.50;1.30;;;17.20;86.10;;;;;;4991382;28;20399;-76
2022/05/29 13:27:28;;;;;;;2.75;1.52;;;17.20;86.20;;;;;;4991133;28;20399;-76
2022/05/29 13:29:57;;;;;;;2.92;1.30;;;17.10;86.20;;;;;;4926973;29;20107;-77
2022/05/29 13:32:28;;;;;;;2.05;1.30;;;17.10;86.30;;;;;;4997727;28;20030;-76
2022/05/29 13:35:03;;;;;;;2.50;1.30;;;17.10;86.30;;;;;;5014393;28;20026;-76
2022/05/29 13:37:31;;;;;;;2.85;1.20;;;17.10;86.40;;;;;;5022522;28;20104;-77
2022/05/29 13:40:06;;;;;;;2.22;1.27;;;17.10;86.50;;;;;;5011951;28;20502;-75
2022/05/29 13:42:32;;;;;;;2.67;1.27;;;17.00;86.50;;;;;;5015073;28;20021;-76
2022/05/29 13:44:58;;;;;;;3.13;1.30;;;17.00;86.50;;;;;;5016011;28;20559;-75
2022/05/29 13:47:32;;;;;;;2.95;1.30;;;17.00;86.60;;;;;;5022603;28;20030;-76
2022/05/29 13:50:05;;;;;;;2.70;1.48;;;17.00;86.60;;;;;;5030265;28;20037;-75
2022/05/29 13:52:48;;;;;;;1.80;1.17;;;17.00;86.60;;;;;;5013512;28;20407;-75